sensor_id;sensor_type;location;lat;lon;timestamp;temperature;humidity
9167;DHT22;4618;48.818;9.088;2022-11-23T00:00:28;4.90;1.00
9167;DHT22;4618;48.818;9.088;2022-11-23T00:02:55;4.90;99.90
9167;DHT22;4618;48.818;9.088;2022-11-23T00:05:22;5.00;1.00
9167;DHT22;4618;48.818;9.088;2022-11-23T00:07:48;5.00;99.90
9167;DHT22;4618;48.818;9.088;2022-11-23T00:10:14;5.00;99.90
9167;DHT22;4618;48.818;9.088;2022-11-23T00:12:39;5.00;99.90
9167;DHT22;4618;48.818;9.088;2022-11-23T00:15:05;5.00;1.00
9167;DHT22;4618;48.818;9.088;2022-11-23T00:17:31;4.90;99.90
9167;DHT22;4618;48.818;9.088;2022-11-23T00:19:57;5.00;24.50
9167;DHT22;4618;48.818;9.088;2022-11-23T00:22:23;5.00;1.00
9167;DHT22;4618;48.818;9.088;2022-11-23T00:24:48;4.90;1.00
9167;DHT22;4618;48.818;9.088;2022-11-23T00:27:14;4.80;99.20
9167;DHT22;4618;48.818;9.088;2022-11-23T00:29:40;4.80;99.90
9167;DHT22;4618;48.818;9.088;2022-11-23T00:32:05;4.90;99.90
9167;DHT22;4618;48.818;9.088;2022-11-23T00:34:31;4.90;99.90
9167;DHT22;4618;48.818;9.088;2022-11-23T00:36:56;5.00;1.00
9167;DHT22;4618;48.818;9.088;2022-11-23T00:39:22;5.10;1.00
9167;DHT22;4618;48.818;9.088;2022-11-23T00:41:47;5.20;1.00
9167;DHT22;4618;48.818;9.088;2022-11-23T00:44:13;5.20;99.90
9167;DHT22;4618;48.818;9.088;2022-11-23T00:46:39;5.30;99.90
9167;DHT22;4618;48.818;9.088;2022-11-23T00:49:04;5.30;99.90
9167;DHT22;4618;48.818;9.088;2022-11-23T00:51:33;5.20;99.90
9167;DHT22;4618;48.818;9.088;2022-11-23T00:54:00;5.30;81.60
9167;DHT22;4618;48.818;9.088;2022-11-23T00:56:27;5.30;99.90
9167;DHT22;4618;48.818;9.088;2022-11-23T00:58:54;5.30;80.70
9167;DHT22;4618;48.818;9.088;2022-11-23T01:01:22;5.30;1.00
9167;DHT22;4618;48.818;9.088;2022-11-23T01:03:50;5.30;1.00
9167;DHT22;4618;48.818;9.088;2022-11-23T01:06:25;5.20;1.00
9167;DHT22;4618;48.818;9.088;2022-11-23T01:08:54;5.20;1.00
9167;DHT22;4618;48.818;9.088;2022-11-23T01:11:21;5.00;47.80
9167;DHT22;4618;48.818;9.088;2022-11-23T01:13:47;5.10;99.90
9167;DHT22;4618;48.818;9.088;2022-11-23T01:16:19;5.00;99.90
9167;DHT22;4618;48.818;9.088;2022-11-23T01:18:45;5.00;99.90
9167;DHT22;4618;48.818;9.088;2022-11-23T01:21:11;5.00;99.90
9167;DHT22;4618;48.818;9.088;2022-11-23T01:23:36;4.90;99.90
9167;DHT22;4618;48.818;9.088;2022-11-23T01:26:07;4.90;99.90
9167;DHT22;4618;48.818;9.088;2022-11-23T01:28:34;4.90;1.00
9167;DHT22;4618;48.818;9.088;2022-11-23T01:31:05;4.90;1.00
9167;DHT22;4618;48.818;9.088;2022-11-23T01:33:31;4.80;1.00
9167;DHT22;4618;48.818;9.088;2022-11-23T01:35:56;4.70;1.00
9167;DHT22;4618;48.818;9.088;2022-11-23T01:38:22;4.80;1.00
9167;DHT22;4618;48.818;9.088;2022-11-23T01:40:48;4.80;1.00
9167;DHT22;4618;48.818;9.088;2022-11-23T01:43:16;4.90;1.00
9167;DHT22;4618;48.818;9.088;2022-11-23T01:46:01;4.90;1.00
9167;DHT22;4618;48.818;9.088;2022-11-23T01:48:32;4.90;1.00
9167;DHT22;4618;48.818;9.088;2022-11-23T01:51:01;4.80;1.00
9167;DHT22;4618;48.818;9.088;2022-11-23T01:53:28;4.80;1.00
9167;DHT22;4618;48.818;9.088;2022-11-23T01:55:58;4.80;1.00
9167;DHT22;4618;48.818;9.088;2022-11-23T01:58:25;4.80;1.00
9167;DHT22;4618;48.818;9.088;2022-11-23T02:00:51;4.70;1.00
9167;DHT22;4618;48.818;9.088;2022-11-23T02:03:17;4.70;1.00
9167;DHT22;4618;48.818;9.088;2022-11-23T02:05:46;4.80;1.00
9167;DHT22;4618;48.818;9.088;2022-11-23T02:08:14;4.80;1.00
9167;DHT22;4618;48.818;9.088;2022-11-23T02:10:41;4.70;1.00
9167;DHT22;4618;48.818;9.088;2022-11-23T02:13:10;4.70;99.90
9167;DHT22;4618;48.818;9.088;2022-11-23T02:15:37;4.70;99.90
9167;DHT22;4618;48.818;9.088;2022-11-23T02:18:06;4.70;99.90
9167;DHT22;4618;48.818;9.088;2022-11-23T02:20:33;4.60;99.90
9167;DHT22;4618;48.818;9.088;2022-11-23T02:28:15;4.50;1.00
9167;DHT22;4618;48.818;9.088;2022-11-23T02:30:42;4.40;1.00
9167;DHT22;4618;48.818;9.088;2022-11-23T02:33:08;4.40;1.00
9167;DHT22;4618;48.818;9.088;2022-11-23T02:35:34;4.40;77.80
9167;DHT22;4618;48.818;9.088;2022-11-23T02:38:01;4.50;99.90
9167;DHT22;4618;48.818;9.088;2022-11-23T02:40:34;4.50;99.90
9167;DHT22;4618;48.818;9.088;2022-11-23T02:43:00;4.60;1.00
9167;DHT22;4618;48.818;9.088;2022-11-23T02:47:54;4.80;1.00
9167;DHT22;4618;48.818;9.088;2022-11-23T02:50:21;4.80;99.90
9167;DHT22;4618;48.818;9.088;2022-11-23T02:52:46;4.80;99.90
9167;DHT22;4618;48.818;9.088;2022-11-23T02:55:12;4.70;1.00
9167;DHT22;4618;48.818;9.088;2022-11-23T02:57:37;4.70;1.00
9167;DHT22;4618;48.818;9.088;2022-11-23T03:00:04;4.60;1.00
9167;DHT22;4618;48.818;9.088;2022-11-23T03:02:29;4.40;1.00
9167;DHT22;4618;48.818;9.088;2022-11-23T03:04:55;4.20;99.90
9167;DHT22;4618;48.818;9.088;2022-11-23T03:07:22;4.10;99.90
9167;DHT22;4618;48.818;9.088;2022-11-23T03:09:47;4.00;1.00
9167;DHT22;4618;48.818;9.088;2022-11-23T03:12:13;3.90;1.00
9167;DHT22;4618;48.818;9.088;2022-11-23T03:14:38;3.80;99.90
9167;DHT22;4618;48.818;9.088;2022-11-23T03:17:04;3.90;1.00
9167;DHT22;4618;48.818;9.088;2022-11-23T03:19:30;3.90;99.90
9167;DHT22;4618;48.818;9.088;2022-11-23T03:21:55;4.00;99.90
9167;DHT22;4618;48.818;9.088;2022-11-23T03:24:21;3.90;99.90
9167;DHT22;4618;48.818;9.088;2022-11-23T03:26:46;3.90;99.90
9167;DHT22;4618;48.818;9.088;2022-11-23T03:29:12;4.10;99.90
9167;DHT22;4618;48.818;9.088;2022-11-23T03:31:38;4.30;1.00
9167;DHT22;4618;48.818;9.088;2022-11-23T03:34:03;4.30;1.00
9167;DHT22;4618;48.818;9.088;2022-11-23T03:36:29;4.40;99.90
9167;DHT22;4618;48.818;9.088;2022-11-23T03:38:54;4.40;99.90
9167;DHT22;4618;48.818;9.088;2022-11-23T03:41:20;4.50;99.90
9167;DHT22;4618;48.818;9.088;2022-11-23T03:43:46;4.60;1.00
9167;DHT22;4618;48.818;9.088;2022-11-23T03:46:11;4.50;1.00
9167;DHT22;4618;48.818;9.088;2022-11-23T03:48:37;4.60;1.00
9167;DHT22;4618;48.818;9.088;2022-11-23T03:51:02;4.70;1.00
9167;DHT22;4618;48.818;9.088;2022-11-23T03:53:28;4.60;1.00
9167;DHT22;4618;48.818;9.088;2022-11-23T03:55:54;4.50;1.00
9167;DHT22;4618;48.818;9.088;2022-11-23T03:58:22;4.50;1.00
9167;DHT22;4618;48.818;9.088;2022-11-23T04:00:47;4.50;43.10
9167;DHT22;4618;48.818;9.088;2022-11-23T04:03:13;4.40;99.90
9167;DHT22;4618;48.818;9.088;2022-11-23T04:05:38;4.40;99.90
9167;DHT22;4618;48.818;9.088;2022-11-23T04:08:04;4.30;99.90
9167;DHT22;4618;48.818;9.088;2022-11-23T04:10:30;4.30;99.90
9167;DHT22;4618;48.818;9.088;2022-11-23T04:12:55;4.10;1.00
9167;DHT22;4618;48.818;9.088;2022-11-23T04:15:21;4.00;1.00
9167;DHT22;4618;48.818;9.088;2022-11-23T04:17:47;4.00;1.00
9167;DHT22;4618;48.818;9.088;2022-11-23T04:20:12;3.80;99.90
9167;DHT22;4618;48.818;9.088;2022-11-23T04:22:38;3.60;1.00
9167;DHT22;4618;48.818;9.088;2022-11-23T04:25:04;3.60;1.00
9167;DHT22;4618;48.818;9.088;2022-11-23T04:27:29;3.60;1.00
9167;DHT22;4618;48.818;9.088;2022-11-23T04:29:55;3.70;1.00
9167;DHT22;4618;48.818;9.088;2022-11-23T04:32:20;3.70;1.00
9167;DHT22;4618;48.818;9.088;2022-11-23T04:34:46;3.70;1.00
9167;DHT22;4618;48.818;9.088;2022-11-23T04:37:12;3.70;1.00
9167;DHT22;4618;48.818;9.088;2022-11-23T04:39:37;3.60;1.00
9167;DHT22;4618;48.818;9.088;2022-11-23T04:42:03;3.70;1.00
9167;DHT22;4618;48.818;9.088;2022-11-23T04:44:28;3.70;1.00
9167;DHT22;4618;48.818;9.088;2022-11-23T04:46:54;3.80;1.00
9167;DHT22;4618;48.818;9.088;2022-11-23T04:49:20;3.90;1.00
9167;DHT22;4618;48.818;9.088;2022-11-23T04:51:45;3.80;99.90
9167;DHT22;4618;48.818;9.088;2022-11-23T04:54:11;4.10;99.90
9167;DHT22;4618;48.818;9.088;2022-11-23T04:56:36;4.10;1.00
9167;DHT22;4618;48.818;9.088;2022-11-23T04:59:02;4.10;1.00
9167;DHT22;4618;48.818;9.088;2022-11-23T05:01:27;4.10;1.00
9167;DHT22;4618;48.818;9.088;2022-11-23T05:03:53;4.30;99.90
9167;DHT22;4618;48.818;9.088;2022-11-23T05:06:19;4.40;99.90
9167;DHT22;4618;48.818;9.088;2022-11-23T05:08:44;4.50;1.00
9167;DHT22;4618;48.818;9.088;2022-11-23T05:11:10;4.60;1.00
9167;DHT22;4618;48.818;9.088;2022-11-23T05:13:35;4.70;1.00
9167;DHT22;4618;48.818;9.088;2022-11-23T05:16:01;4.90;99.90
9167;DHT22;4618;48.818;9.088;2022-11-23T05:18:26;5.10;99.90
9167;DHT22;4618;48.818;9.088;2022-11-23T05:20:52;5.10;28.90
9167;DHT22;4618;48.818;9.088;2022-11-23T05:23:18;5.20;1.00
9167;DHT22;4618;48.818;9.088;2022-11-23T05:25:43;5.30;1.00
9167;DHT22;4618;48.818;9.088;2022-11-23T05:28:15;5.20;1.00
9167;DHT22;4618;48.818;9.088;2022-11-23T05:30:41;5.30;1.00
9167;DHT22;4618;48.818;9.088;2022-11-23T05:33:06;5.40;1.00
9167;DHT22;4618;48.818;9.088;2022-11-23T05:35:32;5.50;1.00
9167;DHT22;4618;48.818;9.088;2022-11-23T05:37:58;5.60;1.00
9167;DHT22;4618;48.818;9.088;2022-11-23T05:40:23;5.60;99.90
9167;DHT22;4618;48.818;9.088;2022-11-23T05:42:53;5.70;99.90
9167;DHT22;4618;48.818;9.088;2022-11-23T05:45:20;5.70;99.90
9167;DHT22;4618;48.818;9.088;2022-11-23T05:47:53;5.60;99.90
9167;DHT22;4618;48.818;9.088;2022-11-23T05:50:20;5.50;99.90
9167;DHT22;4618;48.818;9.088;2022-11-23T05:52:46;5.60;99.90
9167;DHT22;4618;48.818;9.088;2022-11-23T05:55:12;5.60;99.90
9167;DHT22;4618;48.818;9.088;2022-11-23T05:57:38;5.60;99.90
9167;DHT22;4618;48.818;9.088;2022-11-23T06:00:04;5.60;99.90
9167;DHT22;4618;48.818;9.088;2022-11-23T06:02:30;5.60;99.90
9167;DHT22;4618;48.818;9.088;2022-11-23T06:04:56;5.60;99.90
9167;DHT22;4618;48.818;9.088;2022-11-23T06:07:21;5.60;99.90
9167;DHT22;4618;48.818;9.088;2022-11-23T06:09:47;5.60;99.90
9167;DHT22;4618;48.818;9.088;2022-11-23T06:12:12;5.50;99.90
9167;DHT22;4618;48.818;9.088;2022-11-23T06:14:38;5.50;99.90
9167;DHT22;4618;48.818;9.088;2022-11-23T06:17:04;5.40;1.00
9167;DHT22;4618;48.818;9.088;2022-11-23T06:19:29;5.30;1.00
9167;DHT22;4618;48.818;9.088;2022-11-23T06:21:56;5.30;1.00
9167;DHT22;4618;48.818;9.088;2022-11-23T06:24:25;5.20;1.00
9167;DHT22;4618;48.818;9.088;2022-11-23T06:26:51;5.10;1.00
9167;DHT22;4618;48.818;9.088;2022-11-23T06:29:18;5.10;10.20
9167;DHT22;4618;48.818;9.088;2022-11-23T06:31:44;5.10;1.00
9167;DHT22;4618;48.818;9.088;2022-11-23T06:34:09;5.00;99.90
9167;DHT22;4618;48.818;9.088;2022-11-23T06:36:35;4.90;99.90
9167;DHT22;4618;48.818;9.088;2022-11-23T06:39:01;5.00;16.50
9167;DHT22;4618;48.818;9.088;2022-11-23T06:41:26;5.00;1.00
9167;DHT22;4618;48.818;9.088;2022-11-23T06:43:52;5.00;1.00
9167;DHT22;4618;48.818;9.088;2022-11-23T06:46:18;5.10;1.00
9167;DHT22;4618;48.818;9.088;2022-11-23T06:48:44;4.90;1.00
9167;DHT22;4618;48.818;9.088;2022-11-23T06:51:10;4.90;1.00
9167;DHT22;4618;48.818;9.088;2022-11-23T06:53:36;4.90;1.00
9167;DHT22;4618;48.818;9.088;2022-11-23T06:56:02;4.80;1.00
9167;DHT22;4618;48.818;9.088;2022-11-23T06:58:28;4.80;1.00
9167;DHT22;4618;48.818;9.088;2022-11-23T07:01:03;4.80;18.50
9167;DHT22;4618;48.818;9.088;2022-11-23T07:03:28;4.80;53.00
9167;DHT22;4618;48.818;9.088;2022-11-23T07:05:54;4.70;99.90
9167;DHT22;4618;48.818;9.088;2022-11-23T07:08:20;4.70;99.90
9167;DHT22;4618;48.818;9.088;2022-11-23T07:10:46;4.60;99.90
9167;DHT22;4618;48.818;9.088;2022-11-23T07:13:12;4.60;99.90
9167;DHT22;4618;48.818;9.088;2022-11-23T07:15:39;4.50;1.00
9167;DHT22;4618;48.818;9.088;2022-11-23T07:18:05;4.40;1.00
9167;DHT22;4618;48.818;9.088;2022-11-23T07:20:31;4.40;1.00
9167;DHT22;4618;48.818;9.088;2022-11-23T07:23:06;4.40;1.00
9167;DHT22;4618;48.818;9.088;2022-11-23T07:25:34;4.30;1.00
9167;DHT22;4618;48.818;9.088;2022-11-23T07:28:01;4.30;1.00
9167;DHT22;4618;48.818;9.088;2022-11-23T07:30:28;4.40;1.00
9167;DHT22;4618;48.818;9.088;2022-11-23T07:33:05;4.40;1.00
9167;DHT22;4618;48.818;9.088;2022-11-23T07:35:31;4.40;1.00
9167;DHT22;4618;48.818;9.088;2022-11-23T07:37:58;4.30;1.00
9167;DHT22;4618;48.818;9.088;2022-11-23T07:40:24;4.10;1.00
9167;DHT22;4618;48.818;9.088;2022-11-23T07:42:49;4.10;99.90
9167;DHT22;4618;48.818;9.088;2022-11-23T07:45:15;4.10;99.90
9167;DHT22;4618;48.818;9.088;2022-11-23T07:47:40;4.10;99.90
9167;DHT22;4618;48.818;9.088;2022-11-23T07:50:07;4.10;1.00
9167;DHT22;4618;48.818;9.088;2022-11-23T07:52:35;4.20;1.00
9167;DHT22;4618;48.818;9.088;2022-11-23T07:55:01;4.40;1.00
9167;DHT22;4618;48.818;9.088;2022-11-23T07:57:27;4.60;99.90
9167;DHT22;4618;48.818;9.088;2022-11-23T07:59:52;5.00;1.00
9167;DHT22;4618;48.818;9.088;2022-11-23T08:02:18;5.20;99.90
9167;DHT22;4618;48.818;9.088;2022-11-23T08:04:43;5.40;1.00
9167;DHT22;4618;48.818;9.088;2022-11-23T08:07:09;5.70;99.90
9167;DHT22;4618;48.818;9.088;2022-11-23T08:09:35;6.00;1.00
9167;DHT22;4618;48.818;9.088;2022-11-23T08:12:01;6.20;1.00
9167;DHT22;4618;48.818;9.088;2022-11-23T08:14:26;6.30;1.00
9167;DHT22;4618;48.818;9.088;2022-11-23T08:16:52;6.40;74.10
9167;DHT22;4618;48.818;9.088;2022-11-23T08:19:17;6.70;1.00
9167;DHT22;4618;48.818;9.088;2022-11-23T08:21:43;6.70;1.00
9167;DHT22;4618;48.818;9.088;2022-11-23T08:24:09;6.70;99.90
9167;DHT22;4618;48.818;9.088;2022-11-23T08:26:35;6.60;1.00
9167;DHT22;4618;48.818;9.088;2022-11-23T08:29:01;6.60;1.00
9167;DHT22;4618;48.818;9.088;2022-11-23T08:31:27;6.50;1.00
9167;DHT22;4618;48.818;9.088;2022-11-23T08:33:52;6.40;1.00
9167;DHT22;4618;48.818;9.088;2022-11-23T08:36:18;6.40;1.00
9167;DHT22;4618;48.818;9.088;2022-11-23T08:38:44;6.40;1.00
9167;DHT22;4618;48.818;9.088;2022-11-23T08:41:10;6.50;3.20
9167;DHT22;4618;48.818;9.088;2022-11-23T08:43:35;6.60;1.00
9167;DHT22;4618;48.818;9.088;2022-11-23T08:46:02;6.60;1.00
9167;DHT22;4618;48.818;9.088;2022-11-23T08:48:28;6.80;1.00
9167;DHT22;4618;48.818;9.088;2022-11-23T08:50:56;6.80;1.00
9167;DHT22;4618;48.818;9.088;2022-11-23T08:53:23;6.90;1.00
9167;DHT22;4618;48.818;9.088;2022-11-23T08:55:48;7.00;99.90
9167;DHT22;4618;48.818;9.088;2022-11-23T08:58:14;7.00;99.90
9167;DHT22;4618;48.818;9.088;2022-11-23T09:00:39;7.00;1.00
9167;DHT22;4618;48.818;9.088;2022-11-23T09:03:05;7.90;1.00
9167;DHT22;4618;48.818;9.088;2022-11-23T09:05:30;9.50;1.00
9167;DHT22;4618;48.818;9.088;2022-11-23T09:07:59;10.70;37.90
9167;DHT22;4618;48.818;9.088;2022-11-23T09:10:25;11.40;99.90
9167;DHT22;4618;48.818;9.088;2022-11-23T09:12:51;11.80;99.90
9167;DHT22;4618;48.818;9.088;2022-11-23T09:15:17;12.10;1.00
9167;DHT22;4618;48.818;9.088;2022-11-23T09:17:43;12.10;1.00
9167;DHT22;4618;48.818;9.088;2022-11-23T09:20:09;11.40;92.30
9167;DHT22;4618;48.818;9.088;2022-11-23T09:22:34;11.40;32.00
9167;DHT22;4618;48.818;9.088;2022-11-23T09:25:00;12.60;1.00
9167;DHT22;4618;48.818;9.088;2022-11-23T09:27:26;13.30;99.90
9167;DHT22;4618;48.818;9.088;2022-11-23T09:29:52;12.40;99.90
9167;DHT22;4618;48.818;9.088;2022-11-23T09:32:17;12.70;99.90
9167;DHT22;4618;48.818;9.088;2022-11-23T09:34:43;13.10;99.90
9167;DHT22;4618;48.818;9.088;2022-11-23T09:37:10;12.50;99.90
9167;DHT22;4618;48.818;9.088;2022-11-23T09:39:36;12.70;99.90
9167;DHT22;4618;48.818;9.088;2022-11-23T09:50:16;14.30;1.00
9167;DHT22;4618;48.818;9.088;2022-11-23T09:52:47;13.80;1.00
9167;DHT22;4618;48.818;9.088;2022-11-23T09:55:19;13.90;1.00
9167;DHT22;4618;48.818;9.088;2022-11-23T09:57:47;13.70;1.00
9167;DHT22;4618;48.818;9.088;2022-11-23T10:00:21;13.30;1.00
9167;DHT22;4618;48.818;9.088;2022-11-23T10:02:48;12.90;53.80
9167;DHT22;4618;48.818;9.088;2022-11-23T10:05:17;13.00;30.80
9167;DHT22;4618;48.818;9.088;2022-11-23T10:15:30;12.90;5.30
9167;DHT22;4618;48.818;9.088;2022-11-23T10:18:08;13.00;1.00
9167;DHT22;4618;48.818;9.088;2022-11-23T10:26:06;14.20;1.00
9167;DHT22;4618;48.818;9.088;2022-11-23T10:28:33;14.00;1.00
9167;DHT22;4618;48.818;9.088;2022-11-23T10:31:06;13.60;1.00
9167;DHT22;4618;48.818;9.088;2022-11-23T10:36:11;13.50;1.00
9167;DHT22;4618;48.818;9.088;2022-11-23T10:38:38;13.90;1.00
9167;DHT22;4618;48.818;9.088;2022-11-23T10:41:07;13.70;1.00
9167;DHT22;4618;48.818;9.088;2022-11-23T10:43:48;13.70;1.00
9167;DHT22;4618;48.818;9.088;2022-11-23T10:48:50;13.10;1.00
9167;DHT22;4618;48.818;9.088;2022-11-23T10:51:22;13.60;1.00
9167;DHT22;4618;48.818;9.088;2022-11-23T10:53:54;13.90;1.00
9167;DHT22;4618;48.818;9.088;2022-11-23T10:56:21;13.80;1.00
9167;DHT22;4618;48.818;9.088;2022-11-23T10:58:47;14.50;1.00
9167;DHT22;4618;48.818;9.088;2022-11-23T11:01:14;14.90;1.00
9167;DHT22;4618;48.818;9.088;2022-11-23T11:03:41;15.30;1.00
9167;DHT22;4618;48.818;9.088;2022-11-23T11:06:07;16.30;1.00
9167;DHT22;4618;48.818;9.088;2022-11-23T11:11:32;16.70;1.00
9167;DHT22;4618;48.818;9.088;2022-11-23T11:16:37;15.90;1.00
9167;DHT22;4618;48.818;9.088;2022-11-23T11:19:33;15.90;1.00
9167;DHT22;4618;48.818;9.088;2022-11-23T11:21:59;16.90;1.00
9167;DHT22;4618;48.818;9.088;2022-11-23T11:24:38;17.30;1.00
9167;DHT22;4618;48.818;9.088;2022-11-23T11:27:22;18.40;1.00
9167;DHT22;4618;48.818;9.088;2022-11-23T11:29:50;17.90;1.00
9167;DHT22;4618;48.818;9.088;2022-11-23T11:37:45;18.50;1.00
9167;DHT22;4618;48.818;9.088;2022-11-23T11:43:03;19.10;1.00
9167;DHT22;4618;48.818;9.088;2022-11-23T11:45:32;19.10;1.00
9167;DHT22;4618;48.818;9.088;2022-11-23T11:48:07;19.00;1.00
9167;DHT22;4618;48.818;9.088;2022-11-23T11:50:46;18.90;1.00
9167;DHT22;4618;48.818;9.088;2022-11-23T11:58:57;18.10;1.00
9167;DHT22;4618;48.818;9.088;2022-11-23T12:01:34;17.50;1.00
9167;DHT22;4618;48.818;9.088;2022-11-23T12:04:05;17.50;1.00
9167;DHT22;4618;48.818;9.088;2022-11-23T12:06:36;18.40;1.00
9167;DHT22;4618;48.818;9.088;2022-11-23T12:09:15;18.80;1.00
9167;DHT22;4618;48.818;9.088;2022-11-23T12:11:42;18.40;1.00
9167;DHT22;4618;48.818;9.088;2022-11-23T12:14:11;18.10;1.00
9167;DHT22;4618;48.818;9.088;2022-11-23T12:22:17;18.80;1.00
9167;DHT22;4618;48.818;9.088;2022-11-23T12:27:44;17.50;1.00
9167;DHT22;4618;48.818;9.088;2022-11-23T12:33:08;16.70;1.00
9167;DHT22;4618;48.818;9.088;2022-11-23T12:46:58;16.80;1.00
9167;DHT22;4618;48.818;9.088;2022-11-23T12:49:11;16.50;1.00
9167;DHT22;4618;48.818;9.088;2022-11-23T12:58:31;16.40;1.00
9167;DHT22;4618;48.818;9.088;2022-11-23T13:00:38;15.20;1.00
9167;DHT22;4618;48.818;9.088;2022-11-23T13:09:04;14.90;1.00
9167;DHT22;4618;48.818;9.088;2022-11-23T13:14:58;14.60;1.00
9167;DHT22;4618;48.818;9.088;2022-11-23T13:23:05;17.00;1.00
9167;DHT22;4618;48.818;9.088;2022-11-23T13:25:31;17.30;1.00
9167;DHT22;4618;48.818;9.088;2022-11-23T13:33:41;16.50;1.00
9167;DHT22;4618;48.818;9.088;2022-11-23T13:36:12;16.70;1.00
9167;DHT22;4618;48.818;9.088;2022-11-23T13:38:59;16.50;1.00
9167;DHT22;4618;48.818;9.088;2022-11-23T13:43:56;15.70;1.00
9167;DHT22;4618;48.818;9.088;2022-11-23T13:48:51;16.00;1.00
9167;DHT22;4618;48.818;9.088;2022-11-23T13:51:25;15.80;1.00
9167;DHT22;4618;48.818;9.088;2022-11-23T13:53:56;16.20;1.00
9167;DHT22;4618;48.818;9.088;2022-11-23T13:56:29;16.40;1.00
9167;DHT22;4618;48.818;9.088;2022-11-23T14:04:30;15.90;1.00
9167;DHT22;4618;48.818;9.088;2022-11-23T14:07:15;15.70;1.00
9167;DHT22;4618;48.818;9.088;2022-11-23T14:10:12;15.90;1.00
9167;DHT22;4618;48.818;9.088;2022-11-23T14:13:02;15.60;1.00
9167;DHT22;4618;48.818;9.088;2022-11-23T14:15:35;15.50;1.00
9167;DHT22;4618;48.818;9.088;2022-11-23T14:24:23;14.60;1.00
9167;DHT22;4618;48.818;9.088;2022-11-23T14:29:25;14.80;1.00
9167;DHT22;4618;48.818;9.088;2022-11-23T14:35:21;14.60;1.00
9167;DHT22;4618;48.818;9.088;2022-11-23T14:38:37;13.60;1.00
9167;DHT22;4618;48.818;9.088;2022-11-23T14:41:19;13.50;1.00
9167;DHT22;4618;48.818;9.088;2022-11-23T14:43:46;13.50;1.00
9167;DHT22;4618;48.818;9.088;2022-11-23T14:46:20;13.60;1.00
9167;DHT22;4618;48.818;9.088;2022-11-23T14:48:49;13.50;1.00
9167;DHT22;4618;48.818;9.088;2022-11-23T14:51:21;13.10;1.00
9167;DHT22;4618;48.818;9.088;2022-11-23T14:53:49;12.50;1.00
9167;DHT22;4618;48.818;9.088;2022-11-23T14:56:45;11.60;99.90
9167;DHT22;4618;48.818;9.088;2022-11-23T14:59:31;10.60;99.90
9167;DHT22;4618;48.818;9.088;2022-11-23T15:02:04;9.70;1.00
9167;DHT22;4618;48.818;9.088;2022-11-23T15:04:32;9.30;23.20
9167;DHT22;4618;48.818;9.088;2022-11-23T15:07:10;9.00;99.90
9167;DHT22;4618;48.818;9.088;2022-11-23T15:10:05;8.60;99.90
9167;DHT22;4618;48.818;9.088;2022-11-23T15:12:46;8.30;1.00
9167;DHT22;4618;48.818;9.088;2022-11-23T15:15:20;8.10;1.00
9167;DHT22;4618;48.818;9.088;2022-11-23T15:17:53;7.90;1.00
9167;DHT22;4618;48.818;9.088;2022-11-23T15:20:20;7.80;1.00
9167;DHT22;4618;48.818;9.088;2022-11-23T15:22:47;7.80;1.00
9167;DHT22;4618;48.818;9.088;2022-11-23T15:25:14;7.80;1.00
9167;DHT22;4618;48.818;9.088;2022-11-23T15:27:42;7.70;1.00
9167;DHT22;4618;48.818;9.088;2022-11-23T15:30:28;7.70;1.00
9167;DHT22;4618;48.818;9.088;2022-11-23T15:33:02;7.60;1.00
9167;DHT22;4618;48.818;9.088;2022-11-23T15:35:32;7.40;1.00
9167;DHT22;4618;48.818;9.088;2022-11-23T15:37:59;7.20;1.00
9167;DHT22;4618;48.818;9.088;2022-11-23T15:40:28;7.10;1.00
9167;DHT22;4618;48.818;9.088;2022-11-23T15:42:55;6.90;1.00
9167;DHT22;4618;48.818;9.088;2022-11-23T15:48:00;7.00;1.00
9167;DHT22;4618;48.818;9.088;2022-11-23T15:50:26;7.20;1.00
9167;DHT22;4618;48.818;9.088;2022-11-23T15:52:52;7.20;1.00
9167;DHT22;4618;48.818;9.088;2022-11-23T15:55:17;7.20;1.00
9167;DHT22;4618;48.818;9.088;2022-11-23T15:57:51;7.10;1.00
9167;DHT22;4618;48.818;9.088;2022-11-23T16:00:24;7.20;1.00
9167;DHT22;4618;48.818;9.088;2022-11-23T16:02:51;7.20;1.00
9167;DHT22;4618;48.818;9.088;2022-11-23T16:05:19;7.30;1.00
9167;DHT22;4618;48.818;9.088;2022-11-23T16:07:56;7.30;1.00
9167;DHT22;4618;48.818;9.088;2022-11-23T16:10:27;7.40;1.00
9167;DHT22;4618;48.818;9.088;2022-11-23T16:12:58;7.50;1.00
9167;DHT22;4618;48.818;9.088;2022-11-23T16:15:38;7.70;1.00
9167;DHT22;4618;48.818;9.088;2022-11-23T16:21:11;7.80;99.90
9167;DHT22;4618;48.818;9.088;2022-11-23T16:26:05;7.80;99.90
9167;DHT22;4618;48.818;9.088;2022-11-23T16:28:32;7.90;99.90
9167;DHT22;4618;48.818;9.088;2022-11-23T16:30:59;7.90;99.90
9167;DHT22;4618;48.818;9.088;2022-11-23T16:33:25;7.90;99.90
9167;DHT22;4618;48.818;9.088;2022-11-23T16:35:51;8.00;99.90
9167;DHT22;4618;48.818;9.088;2022-11-23T16:38:17;8.20;42.00
9167;DHT22;4618;48.818;9.088;2022-11-23T16:40:44;8.30;1.00
9167;DHT22;4618;48.818;9.088;2022-11-23T16:43:11;8.40;1.00
9167;DHT22;4618;48.818;9.088;2022-11-23T16:45:42;8.30;1.00
9167;DHT22;4618;48.818;9.088;2022-11-23T16:50:53;8.50;1.00
9167;DHT22;4618;48.818;9.088;2022-11-23T16:53:19;8.20;99.90
9167;DHT22;4618;48.818;9.088;2022-11-23T16:55:50;8.10;99.90
9167;DHT22;4618;48.818;9.088;2022-11-23T16:58:17;8.10;1.00
9167;DHT22;4618;48.818;9.088;2022-11-23T17:00:43;7.90;1.00
9167;DHT22;4618;48.818;9.088;2022-11-23T17:03:16;7.70;1.00
9167;DHT22;4618;48.818;9.088;2022-11-23T17:05:42;7.70;1.00
9167;DHT22;4618;48.818;9.088;2022-11-23T17:08:08;7.70;1.00
9167;DHT22;4618;48.818;9.088;2022-11-23T17:10:38;7.70;1.00
9167;DHT22;4618;48.818;9.088;2022-11-23T17:13:09;7.70;1.00
9167;DHT22;4618;48.818;9.088;2022-11-23T17:15:36;7.60;1.00
9167;DHT22;4618;48.818;9.088;2022-11-23T17:18:02;7.50;48.50
9167;DHT22;4618;48.818;9.088;2022-11-23T17:20:28;7.50;1.00
9167;DHT22;4618;48.818;9.088;2022-11-23T17:22:54;7.40;99.90
9167;DHT22;4618;48.818;9.088;2022-11-23T17:25:24;7.30;99.90
9167;DHT22;4618;48.818;9.088;2022-11-23T17:27:50;7.20;99.90
9167;DHT22;4618;48.818;9.088;2022-11-23T17:30:19;7.00;1.00
9167;DHT22;4618;48.818;9.088;2022-11-23T17:32:49;7.00;99.90
9167;DHT22;4618;48.818;9.088;2022-11-23T17:35:15;7.10;99.90
9167;DHT22;4618;48.818;9.088;2022-11-23T17:37:41;7.00;1.00
9167;DHT22;4618;48.818;9.088;2022-11-23T17:40:15;7.00;1.00
9167;DHT22;4618;48.818;9.088;2022-11-23T17:42:41;7.00;1.00
9167;DHT22;4618;48.818;9.088;2022-11-23T17:45:07;6.90;99.90
9167;DHT22;4618;48.818;9.088;2022-11-23T17:47:32;6.80;1.00
9167;DHT22;4618;48.818;9.088;2022-11-23T17:49:58;6.80;99.90
9167;DHT22;4618;48.818;9.088;2022-11-23T17:52:24;6.80;1.00
9167;DHT22;4618;48.818;9.088;2022-11-23T17:54:50;6.70;1.00
9167;DHT22;4618;48.818;9.088;2022-11-23T17:57:23;6.60;99.90
9167;DHT22;4618;48.818;9.088;2022-11-23T17:59:49;6.60;1.00
9167;DHT22;4618;48.818;9.088;2022-11-23T18:02:15;6.50;1.00
9167;DHT22;4618;48.818;9.088;2022-11-23T18:04:40;6.50;1.00
9167;DHT22;4618;48.818;9.088;2022-11-23T18:07:08;6.40;97.00
9167;DHT22;4618;48.818;9.088;2022-11-23T18:09:34;6.30;1.00
9167;DHT22;4618;48.818;9.088;2022-11-23T18:12:00;6.40;1.00
9167;DHT22;4618;48.818;9.088;2022-11-23T18:14:26;6.30;99.90
9167;DHT22;4618;48.818;9.088;2022-11-23T18:16:54;6.20;99.90
9167;DHT22;4618;48.818;9.088;2022-11-23T18:19:20;6.30;99.90
9167;DHT22;4618;48.818;9.088;2022-11-23T18:21:45;6.30;99.90
9167;DHT22;4618;48.818;9.088;2022-11-23T18:24:11;6.30;1.00
9167;DHT22;4618;48.818;9.088;2022-11-23T18:26:37;6.20;1.00
9167;DHT22;4618;48.818;9.088;2022-11-23T18:29:03;6.20;1.00
9167;DHT22;4618;48.818;9.088;2022-11-23T18:31:29;6.20;1.00
9167;DHT22;4618;48.818;9.088;2022-11-23T18:33:54;6.20;1.00
9167;DHT22;4618;48.818;9.088;2022-11-23T18:36:20;6.20;1.00
9167;DHT22;4618;48.818;9.088;2022-11-23T18:38:46;6.20;1.00
9167;DHT22;4618;48.818;9.088;2022-11-23T18:41:13;6.30;15.40
9167;DHT22;4618;48.818;9.088;2022-11-23T18:43:44;6.30;90.00
9167;DHT22;4618;48.818;9.088;2022-11-23T18:46:11;6.30;1.00